sensor_id;sensor_type;location;lat;lon;timestamp;pressure;altitude;pressure_sealevel;temperature;humidity
11038;BME280;5572;49.540;11.932;2023-06-14T00:00:01;96238.66;;;13.94;100.00
11038;BME280;5572;49.540;11.932;2023-06-14T00:02:29;96243.75;;;13.95;100.00
11038;BME280;5572;49.540;11.932;2023-06-14T00:04:56;96253.66;;;13.83;100.00
11038;BME280;5572;49.540;11.932;2023-06-14T00:07:34;96269.72;;;13.63;100.00
11038;BME280;5572;49.540;11.932;2023-06-14T00:10:00;96279.81;;;13.62;100.00
11038;BME280;5572;49.540;11.932;2023-06-14T00:12:28;96291.84;;;13.39;100.00
11038;BME280;5572;49.540;11.932;2023-06-14T00:14:55;96312.28;;;13.37;100.00
11038;BME280;5572;49.540;11.932;2023-06-14T00:17:21;96310.63;;;13.58;100.00
11038;BME280;5572;49.540;11.932;2023-06-14T00:19:48;96323.03;;;13.42;100.00
11038;BME280;5572;49.540;11.932;2023-06-14T00:22:15;96344.31;;;12.96;100.00
11038;BME280;5572;49.540;11.932;2023-06-14T00:24:42;96369.00;;;12.73;100.00
11038;BME280;5572;49.540;11.932;2023-06-14T00:27:08;96383.06;;;12.75;100.00
11038;BME280;5572;49.540;11.932;2023-06-14T00:29:36;96403.94;;;12.39;100.00
11038;BME280;5572;49.540;11.932;2023-06-14T00:32:03;96419.00;;;12.45;100.00
11038;BME280;5572;49.540;11.932;2023-06-14T00:34:30;96425.53;;;12.30;100.00
11038;BME280;5572;49.540;11.932;2023-06-14T00:36:56;96437.72;;;12.06;100.00
11038;BME280;5572;49.540;11.932;2023-06-14T00:39:23;96444.09;;;11.97;100.00
11038;BME280;5572;49.540;11.932;2023-06-14T00:41:50;96466.16;;;11.77;100.00
11038;BME280;5572;49.540;11.932;2023-06-14T00:44:16;96478.97;;;11.71;100.00
11038;BME280;5572;49.540;11.932;2023-06-14T00:46:45;96473.75;;;11.61;100.00
11038;BME280;5572;49.540;11.932;2023-06-14T00:49:12;96492.31;;;11.49;100.00
11038;BME280;5572;49.540;11.932;2023-06-14T00:51:40;96476.47;;;11.75;100.00
11038;BME280;5572;49.540;11.932;2023-06-14T00:54:07;96474.66;;;11.57;100.00
11038;BME280;5572;49.540;11.932;2023-06-14T00:56:35;96458.63;;;11.74;100.00
11038;BME280;5572;49.540;11.932;2023-06-14T00:59:02;96438.09;;;12.00;100.00
11038;BME280;5572;49.540;11.932;2023-06-14T01:01:29;96433.25;;;11.70;100.00
11038;BME280;5572;49.540;11.932;2023-06-14T01:03:59;96419.34;;;11.76;100.00
11038;BME280;5572;49.540;11.932;2023-06-14T01:06:30;96410.91;;;12.04;100.00
11038;BME280;5572;49.540;11.932;2023-06-14T01:09:05;96393.31;;;12.42;100.00
11038;BME280;5572;49.540;11.932;2023-06-14T01:11:41;96386.31;;;11.88;100.00
11038;BME280;5572;49.540;11.932;2023-06-14T01:14:11;96393.63;;;11.74;100.00
11038;BME280;5572;49.540;11.932;2023-06-14T01:16:39;96380.22;;;11.82;100.00
11038;BME280;5572;49.540;11.932;2023-06-14T01:19:09;96382.81;;;11.74;100.00
11038;BME280;5572;49.540;11.932;2023-06-14T01:21:39;96372.91;;;11.83;100.00
11038;BME280;5572;49.540;11.932;2023-06-14T01:24:08;96364.22;;;12.21;100.00
11038;BME280;5572;49.540;11.932;2023-06-14T01:26:36;96371.69;;;11.89;100.00
11038;BME280;5572;49.540;11.932;2023-06-14T01:29:05;96375.38;;;11.66;100.00
11038;BME280;5572;49.540;11.932;2023-06-14T01:31:34;96376.22;;;11.80;100.00
11038;BME280;5572;49.540;11.932;2023-06-14T01:34:06;96368.69;;;11.63;100.00
11038;BME280;5572;49.540;11.932;2023-06-14T01:36:35;96363.03;;;11.46;100.00
11038;BME280;5572;49.540;11.932;2023-06-14T01:39:04;96359.88;;;11.26;100.00
11038;BME280;5572;49.540;11.932;2023-06-14T01:41:34;96356.59;;;11.29;100.00
11038;BME280;5572;49.540;11.932;2023-06-14T01:44:01;96350.34;;;11.15;100.00
11038;BME280;5572;49.540;11.932;2023-06-14T01:46:28;96333.25;;;11.46;100.00
11038;BME280;5572;49.540;11.932;2023-06-14T01:48:55;96323.13;;;11.52;100.00
11038;BME280;5572;49.540;11.932;2023-06-14T01:51:21;96305.69;;;11.44;100.00
11038;BME280;5572;49.540;11.932;2023-06-14T01:53:48;96292.66;;;11.46;100.00
11038;BME280;5572;49.540;11.932;2023-06-14T01:56:14;96276.31;;;11.51;100.00
11038;BME280;5572;49.540;11.932;2023-06-14T01:58:42;96277.13;;;11.52;100.00
11038;BME280;5572;49.540;11.932;2023-06-14T02:01:09;96274.25;;;11.62;100.00
11038;BME280;5572;49.540;11.932;2023-06-14T02:03:36;96260.34;;;11.77;100.00
11038;BME280;5572;49.540;11.932;2023-06-14T02:06:03;96258.13;;;11.92;100.00
11038;BME280;5572;49.540;11.932;2023-06-14T02:08:30;96245.38;;;12.50;100.00
11038;BME280;5572;49.540;11.932;2023-06-14T02:10:56;96237.91;;;12.55;100.00
11038;BME280;5572;49.540;11.932;2023-06-14T02:13:23;96229.34;;;12.62;100.00
11038;BME280;5572;49.540;11.932;2023-06-14T02:15:51;96239.59;;;12.43;100.00
11038;BME280;5572;49.540;11.932;2023-06-14T02:18:19;96253.81;;;11.91;100.00
11038;BME280;5572;49.540;11.932;2023-06-14T02:20:46;96260.03;;;11.78;100.00
11038;BME280;5572;49.540;11.932;2023-06-14T02:23:13;96260.69;;;11.75;100.00
11038;BME280;5572;49.540;11.932;2023-06-14T02:25:40;96270.22;;;11.73;100.00
11038;BME280;5572;49.540;11.932;2023-06-14T02:28:06;96264.91;;;11.54;100.00
11038;BME280;5572;49.540;11.932;2023-06-14T02:30:33;96270.97;;;11.33;100.00
11038;BME280;5572;49.540;11.932;2023-06-14T02:33:01;96261.28;;;11.59;100.00
11038;BME280;5572;49.540;11.932;2023-06-14T02:35:29;96258.09;;;11.57;100.00
11038;BME280;5572;49.540;11.932;2023-06-14T02:37:56;96257.66;;;11.50;100.00
11038;BME280;5572;49.540;11.932;2023-06-14T02:40:22;96246.75;;;11.55;100.00
11038;BME280;5572;49.540;11.932;2023-06-14T02:42:49;96245.56;;;11.61;100.00
11038;BME280;5572;49.540;11.932;2023-06-14T02:45:15;96245.66;;;11.56;100.00
11038;BME280;5572;49.540;11.932;2023-06-14T02:47:42;96231.63;;;11.67;100.00
11038;BME280;5572;49.540;11.932;2023-06-14T02:50:10;96216.06;;;11.95;100.00
11038;BME280;5572;49.540;11.932;2023-06-14T02:52:36;96207.84;;;12.43;100.00
11038;BME280;5572;49.540;11.932;2023-06-14T02:55:03;96201.06;;;12.85;100.00
11038;BME280;5572;49.540;11.932;2023-06-14T02:57:31;96200.84;;;13.03;100.00
11038;BME280;5572;49.540;11.932;2023-06-14T02:59:58;96198.03;;;13.08;100.00
11038;BME280;5572;49.540;11.932;2023-06-14T03:02:24;96198.81;;;13.08;100.00
11038;BME280;5572;49.540;11.932;2023-06-14T03:04:51;96207.19;;;13.29;100.00
11038;BME280;5572;49.540;11.932;2023-06-14T03:07:18;96210.06;;;13.32;100.00
11038;BME280;5572;49.540;11.932;2023-06-14T03:09:45;96209.69;;;13.17;100.00
11038;BME280;5572;49.540;11.932;2023-06-14T03:12:12;96211.63;;;13.25;100.00
11038;BME280;5572;49.540;11.932;2023-06-14T03:14:40;96217.53;;;13.18;100.00
11038;BME280;5572;49.540;11.932;2023-06-14T03:17:07;96224.25;;;13.21;100.00
11038;BME280;5572;49.540;11.932;2023-06-14T03:19:34;96235.38;;;13.11;100.00
11038;BME280;5572;49.540;11.932;2023-06-14T03:22:00;96234.75;;;13.14;100.00
11038;BME280;5572;49.540;11.932;2023-06-14T03:24:29;96239.16;;;13.01;100.00
11038;BME280;5572;49.540;11.932;2023-06-14T03:26:57;96244.81;;;13.13;100.00
11038;BME280;5572;49.540;11.932;2023-06-14T03:29:23;96245.16;;;13.20;100.00
11038;BME280;5572;49.540;11.932;2023-06-14T03:31:57;96255.75;;;13.00;100.00
11038;BME280;5572;49.540;11.932;2023-06-14T03:34:24;96253.28;;;13.12;100.00
11038;BME280;5572;49.540;11.932;2023-06-14T03:36:51;96265.00;;;12.99;100.00
11038;BME280;5572;49.540;11.932;2023-06-14T03:39:17;96266.72;;;12.95;100.00
11038;BME280;5572;49.540;11.932;2023-06-14T03:41:45;96270.25;;;12.95;100.00
11038;BME280;5572;49.540;11.932;2023-06-14T03:44:15;96272.00;;;12.91;100.00
11038;BME280;5572;49.540;11.932;2023-06-14T03:46:42;96285.56;;;12.91;100.00
11038;BME280;5572;49.540;11.932;2023-06-14T03:49:08;96290.69;;;12.80;100.00
11038;BME280;5572;49.540;11.932;2023-06-14T03:51:35;96285.66;;;12.87;100.00
11038;BME280;5572;49.540;11.932;2023-06-14T03:54:01;96291.59;;;12.67;100.00
11038;BME280;5572;49.540;11.932;2023-06-14T03:56:28;96292.63;;;12.79;100.00
11038;BME280;5572;49.540;11.932;2023-06-14T03:58:56;96294.91;;;12.86;100.00
11038;BME280;5572;49.540;11.932;2023-06-14T04:01:22;96286.41;;;13.00;100.00
11038;BME280;5572;49.540;11.932;2023-06-14T04:03:55;96278.31;;;13.09;100.00
11038;BME280;5572;49.540;11.932;2023-06-14T04:06:22;96294.69;;;12.95;100.00
11038;BME280;5572;49.540;11.932;2023-06-14T04:08:50;96279.81;;;13.23;100.00
11038;BME280;5572;49.540;11.932;2023-06-14T04:11:17;96275.50;;;13.22;100.00
11038;BME280;5572;49.540;11.932;2023-06-14T04:13:44;96274.31;;;13.45;100.00
11038;BME280;5572;49.540;11.932;2023-06-14T04:16:21;96271.22;;;13.69;100.00
11038;BME280;5572;49.540;11.932;2023-06-14T04:18:48;96272.81;;;13.78;100.00
11038;BME280;5572;49.540;11.932;2023-06-14T04:21:16;96286.59;;;13.43;100.00
11038;BME280;5572;49.540;11.932;2023-06-14T04:23:43;96285.06;;;13.59;100.00
11038;BME280;5572;49.540;11.932;2023-06-14T04:26:10;96274.16;;;13.97;100.00
11038;BME280;5572;49.540;11.932;2023-06-14T04:28:37;96275.91;;;14.02;100.00
11038;BME280;5572;49.540;11.932;2023-06-14T04:31:06;96271.44;;;13.97;100.00
11038;BME280;5572;49.540;11.932;2023-06-14T04:33:35;96270.16;;;14.03;100.00
11038;BME280;5572;49.540;11.932;2023-06-14T04:36:08;96265.84;;;14.02;100.00
11038;BME280;5572;49.540;11.932;2023-06-14T04:38:35;96277.81;;;13.93;100.00
11038;BME280;5572;49.540;11.932;2023-06-14T04:41:01;96257.56;;;14.66;100.00
11038;BME280;5572;49.540;11.932;2023-06-14T04:43:28;96259.03;;;16.42;100.00
11038;BME280;5572;49.540;11.932;2023-06-14T04:45:54;96285.69;;;16.98;100.00
11038;BME280;5572;49.540;11.932;2023-06-14T04:48:21;96274.44;;;17.31;100.00
11038;BME280;5572;49.540;11.932;2023-06-14T04:50:49;96277.56;;;17.90;100.00
11038;BME280;5572;49.540;11.932;2023-06-14T04:53:18;96274.25;;;18.32;100.00
11038;BME280;5572;49.540;11.932;2023-06-14T04:55:46;96287.09;;;17.36;100.00
11038;BME280;5572;49.540;11.932;2023-06-14T04:58:13;96264.66;;;18.50;100.00
11038;BME280;5572;49.540;11.932;2023-06-14T05:07:24;96215.66;;;17.25;100.00
11038;BME280;5572;49.540;11.932;2023-06-14T05:09:51;96215.09;;;18.15;100.00
11038;BME280;5572;49.540;11.932;2023-06-14T05:12:17;96181.13;;;18.99;100.00
11038;BME280;5572;49.540;11.932;2023-06-14T05:14:44;96185.16;;;18.89;100.00
11038;BME280;5572;49.540;11.932;2023-06-14T05:17:10;96132.66;;;19.80;100.00
11038;BME280;5572;49.540;11.932;2023-06-14T05:19:37;96092.44;;;20.02;100.00
11038;BME280;5572;49.540;11.932;2023-06-14T05:22:04;96107.94;;;19.45;100.00
11038;BME280;5572;49.540;11.932;2023-06-14T05:24:32;96118.50;;;19.28;100.00
11038;BME280;5572;49.540;11.932;2023-06-14T05:26:58;96103.94;;;19.92;100.00
11038;BME280;5572;49.540;11.932;2023-06-14T05:29:25;96088.34;;;19.62;100.00
11038;BME280;5572;49.540;11.932;2023-06-14T05:31:52;96201.66;;;17.15;100.00
11038;BME280;5572;49.540;11.932;2023-06-14T05:34:19;96204.72;;;18.21;100.00
11038;BME280;5572;49.540;11.932;2023-06-14T05:36:45;96144.06;;;19.16;100.00
11038;BME280;5572;49.540;11.932;2023-06-14T05:39:12;96160.22;;;18.63;100.00
11038;BME280;5572;49.540;11.932;2023-06-14T05:41:41;96215.00;;;18.00;100.00
11038;BME280;5572;49.540;11.932;2023-06-14T05:44:08;96278.44;;;17.02;100.00
11038;BME280;5572;49.540;11.932;2023-06-14T05:46:35;96137.81;;;20.53;100.00
11038;BME280;5572;49.540;11.932;2023-06-14T05:49:01;96125.38;;;19.06;100.00
11038;BME280;5572;49.540;11.932;2023-06-14T05:51:28;96154.13;;;18.70;100.00
11038;BME280;5572;49.540;11.932;2023-06-14T05:53:55;96190.81;;;18.81;100.00
11038;BME280;5572;49.540;11.932;2023-06-14T05:56:22;96179.66;;;18.74;100.00
11038;BME280;5572;49.540;11.932;2023-06-14T05:58:50;96207.53;;;18.64;100.00
11038;BME280;5572;49.540;11.932;2023-06-14T06:01:16;96181.81;;;19.23;100.00
11038;BME280;5572;49.540;11.932;2023-06-14T06:03:43;96185.09;;;18.58;100.00
11038;BME280;5572;49.540;11.932;2023-06-14T06:06:11;96199.63;;;18.74;100.00
11038;BME280;5572;49.540;11.932;2023-06-14T06:08:38;96051.94;;;21.71;100.00
11038;BME280;5572;49.540;11.932;2023-06-14T06:11:05;96036.41;;;21.08;100.00
11038;BME280;5572;49.540;11.932;2023-06-14T06:13:32;95991.47;;;20.75;100.00
11038;BME280;5572;49.540;11.932;2023-06-14T06:16:00;95939.06;;;22.37;100.00
11038;BME280;5572;49.540;11.932;2023-06-14T06:18:26;96024.66;;;20.44;100.00
11038;BME280;5572;49.540;11.932;2023-06-14T06:20:53;96021.97;;;20.48;100.00
11038;BME280;5572;49.540;11.932;2023-06-14T06:23:23;96012.22;;;20.09;100.00
11038;BME280;5572;49.540;11.932;2023-06-14T06:25:50;96117.31;;;19.44;100.00
11038;BME280;5572;49.540;11.932;2023-06-14T06:28:17;96203.56;;;18.61;100.00
11038;BME280;5572;49.540;11.932;2023-06-14T06:30:43;95917.28;;;23.08;100.00
11038;BME280;5572;49.540;11.932;2023-06-14T06:33:11;95919.56;;;20.70;100.00
11038;BME280;5572;49.540;11.932;2023-06-14T06:35:39;96036.00;;;19.67;100.00
11038;BME280;5572;49.540;11.932;2023-06-14T06:38:05;96034.75;;;20.81;100.00
11038;BME280;5572;49.540;11.932;2023-06-14T06:40:32;96085.00;;;21.27;100.00
11038;BME280;5572;49.540;11.932;2023-06-14T06:42:58;96162.63;;;19.54;100.00
11038;BME280;5572;49.540;11.932;2023-06-14T06:45:25;96075.63;;;21.05;100.00
11038;BME280;5572;49.540;11.932;2023-06-14T06:47:52;96194.44;;;19.74;100.00
11038;BME280;5572;49.540;11.932;2023-06-14T06:50:20;96185.84;;;20.44;100.00
11038;BME280;5572;49.540;11.932;2023-06-14T06:52:48;96218.50;;;19.49;100.00
11038;BME280;5572;49.540;11.932;2023-06-14T06:55:15;96278.06;;;18.55;100.00
11038;BME280;5572;49.540;11.932;2023-06-14T06:57:42;96227.69;;;20.37;100.00
11038;BME280;5572;49.540;11.932;2023-06-14T07:00:10;96294.97;;;18.45;100.00
11038;BME280;5572;49.540;11.932;2023-06-14T07:02:37;96267.00;;;18.91;100.00
11038;BME280;5572;49.540;11.932;2023-06-14T07:05:04;96266.50;;;19.01;100.00
11038;BME280;5572;49.540;11.932;2023-06-14T07:07:32;96214.88;;;19.76;100.00
11038;BME280;5572;49.540;11.932;2023-06-14T07:09:59;96292.25;;;18.21;100.00
11038;BME280;5572;49.540;11.932;2023-06-14T07:12:29;96308.88;;;18.91;100.00
11038;BME280;5572;49.540;11.932;2023-06-14T07:14:57;96307.66;;;18.37;100.00
11038;BME280;5572;49.540;11.932;2023-06-14T07:17:23;96306.97;;;18.05;100.00
11038;BME280;5572;49.540;11.932;2023-06-14T07:19:50;96357.81;;;18.06;100.00
11038;BME280;5572;49.540;11.932;2023-06-14T07:22:18;96300.88;;;18.98;100.00
11038;BME280;5572;49.540;11.932;2023-06-14T07:24:46;96311.19;;;18.26;100.00
11038;BME280;5572;49.540;11.932;2023-06-14T07:27:13;96260.78;;;19.94;100.00
11038;BME280;5572;49.540;11.932;2023-06-14T07:29:39;96215.22;;;19.90;100.00
11038;BME280;5572;49.540;11.932;2023-06-14T07:32:06;96162.66;;;20.22;100.00
11038;BME280;5572;49.540;11.932;2023-06-14T07:34:33;96227.53;;;19.65;100.00
11038;BME280;5572;49.540;11.932;2023-06-14T07:37:00;96215.00;;;20.14;100.00
11038;BME280;5572;49.540;11.932;2023-06-14T07:39:26;96228.94;;;19.59;100.00
11038;BME280;5572;49.540;11.932;2023-06-14T07:41:54;96276.44;;;19.63;100.00
11038;BME280;5572;49.540;11.932;2023-06-14T07:44:20;96219.31;;;20.49;100.00
11038;BME280;5572;49.540;11.932;2023-06-14T07:46:47;96167.91;;;21.51;100.00
11038;BME280;5572;49.540;11.932;2023-06-14T07:49:15;96168.09;;;21.17;100.00
11038;BME280;5572;49.540;11.932;2023-06-14T07:51:42;96097.03;;;21.93;100.00
11038;BME280;5572;49.540;11.932;2023-06-14T07:54:09;96239.38;;;19.23;100.00
11038;BME280;5572;49.540;11.932;2023-06-14T07:56:36;96268.94;;;19.76;100.00
11038;BME280;5572;49.540;11.932;2023-06-14T07:59:04;96258.59;;;20.15;100.00
11038;BME280;5572;49.540;11.932;2023-06-14T08:01:31;96268.50;;;20.04;100.00
11038;BME280;5572;49.540;11.932;2023-06-14T08:03:58;96201.56;;;21.00;100.00
11038;BME280;5572;49.540;11.932;2023-06-14T08:06:25;96155.91;;;22.37;100.00
11038;BME280;5572;49.540;11.932;2023-06-14T08:08:51;96226.06;;;19.87;100.00
11038;BME280;5572;49.540;11.932;2023-06-14T08:11:18;96215.81;;;21.69;100.00
11038;BME280;5572;49.540;11.932;2023-06-14T08:13:44;96139.50;;;21.66;100.00
11038;BME280;5572;49.540;11.932;2023-06-14T08:16:12;96083.94;;;22.12;100.00
11038;BME280;5572;49.540;11.932;2023-06-14T08:18:39;96101.53;;;22.04;100.00
11038;BME280;5572;49.540;11.932;2023-06-14T08:21:05;96192.16;;;21.01;100.00
11038;BME280;5572;49.540;11.932;2023-06-14T08:23:32;96269.81;;;19.95;100.00
11038;BME280;5572;49.540;11.932;2023-06-14T08:25:59;96201.72;;;21.29;100.00
11038;BME280;5572;49.540;11.932;2023-06-14T08:28:26;96197.28;;;20.65;100.00
11038;BME280;5572;49.540;11.932;2023-06-14T08:30:53;96119.47;;;22.83;100.00
11038;BME280;5572;49.540;11.932;2023-06-14T08:33:21;96081.00;;;22.97;100.00
11038;BME280;5572;49.540;11.932;2023-06-14T08:35:47;96174.41;;;21.17;100.00
11038;BME280;5572;49.540;11.932;2023-06-14T08:40:41;96044.78;;;21.67;100.00
11038;BME280;5572;49.540;11.932;2023-06-14T08:43:08;96109.31;;;20.80;100.00
11038;BME280;5572;49.540;11.932;2023-06-14T08:45:35;96077.44;;;21.68;100.00
11038;BME280;5572;49.540;11.932;2023-06-14T08:48:01;96075.34;;;22.47;100.00
11038;BME280;5572;49.540;11.932;2023-06-14T08:50:31;96103.16;;;20.86;100.00
11038;BME280;5572;49.540;11.932;2023-06-14T08:53:00;96068.63;;;22.15;100.00
11038;BME280;5572;49.540;11.932;2023-06-14T08:55:27;96031.94;;;21.74;100.00
11038;BME280;5572;49.540;11.932;2023-06-14T08:57:56;96023.72;;;21.00;100.00
11038;BME280;5572;49.540;11.932;2023-06-14T09:00:24;96035.72;;;21.92;100.00
11038;BME280;5572;49.540;11.932;2023-06-14T09:02:52;95996.63;;;22.85;100.00
11038;BME280;5572;49.540;11.932;2023-06-14T09:05:23;95867.06;;;23.53;100.00
11038;BME280;5572;49.540;11.932;2023-06-14T09:07:52;96023.44;;;21.57;100.00
11038;BME280;5572;49.540;11.932;2023-06-14T09:10:21;96058.41;;;20.67;100.00
11038;BME280;5572;49.540;11.932;2023-06-14T09:12:47;95998.13;;;21.48;100.00
11038;BME280;5572;49.540;11.932;2023-06-14T09:15:14;96033.34;;;21.39;100.00
11038;BME280;5572;49.540;11.932;2023-06-14T09:17:41;95999.28;;;21.21;100.00
11038;BME280;5572;49.540;11.932;2023-06-14T09:20:09;95933.59;;;23.41;100.00
11038;BME280;5572;49.540;11.932;2023-06-14T09:22:37;95841.25;;;23.14;100.00
11038;BME280;5572;49.540;11.932;2023-06-14T09:25:06;95933.72;;;21.23;100.00
11038;BME280;5572;49.540;11.932;2023-06-14T09:27:34;95932.25;;;23.11;100.00
11038;BME280;5572;49.540;11.932;2023-06-14T09:30:02;96044.47;;;21.20;100.00
11038;BME280;5572;49.540;11.932;2023-06-14T09:32:28;95958.81;;;21.48;100.00
11038;BME280;5572;49.540;11.932;2023-06-14T09:34:56;95779.22;;;23.79;100.00
11038;BME280;5572;49.540;11.932;2023-06-14T09:37:30;95856.63;;;23.12;100.00
11038;BME280;5572;49.540;11.932;2023-06-14T09:39:57;95816.75;;;24.36;100.00
11038;BME280;5572;49.540;11.932;2023-06-14T09:42:26;95791.84;;;23.87;100.00
11038;BME280;5572;49.540;11.932;2023-06-14T09:44:55;95828.88;;;21.94;100.00
11038;BME280;5572;49.540;11.932;2023-06-14T09:47:22;95755.81;;;22.54;100.00
11038;BME280;5572;49.540;11.932;2023-06-14T09:49:50;95671.03;;;23.04;100.00
11038;BME280;5572;49.540;11.932;2023-06-14T09:52:18;95830.91;;;22.97;100.00
11038;BME280;5572;49.540;11.932;2023-06-14T09:54:46;95637.59;;;24.28;100.00
11038;BME280;5572;49.540;11.932;2023-06-14T09:57:14;95578.47;;;25.54;100.00
11038;BME280;5572;49.540;11.932;2023-06-14T09:59:45;95595.78;;;24.19;100.00
11038;BME280;5572;49.540;11.932;2023-06-14T10:02:18;95805.44;;;23.21;100.00
11038;BME280;5572;49.540;11.932;2023-06-14T10:04:55;95580.00;;;24.16;100.00
11038;BME280;5572;49.540;11.932;2023-06-14T10:07:27;95496.00;;;24.10;100.00
11038;BME280;5572;49.540;11.932;2023-06-14T10:09:57;95252.84;;;24.67;100.00
11038;BME280;5572;49.540;11.932;2023-06-14T10:12:24;95627.16;;;22.61;100.00
11038;BME280;5572;49.540;11.932;2023-06-14T10:14:54;95448.19;;;24.84;100.00
11038;BME280;5572;49.540;11.932;2023-06-14T10:17:31;95283.56;;;24.29;100.00
11038;BME280;5572;49.540;11.932;2023-06-14T10:20:10;95503.97;;;23.80;100.00
11038;BME280;5572;49.540;11.932;2023-06-14T10:22:45;95412.03;;;24.61;100.00
11038;BME280;5572;49.540;11.932;2023-06-14T10:25:26;95513.59;;;24.47;100.00
11038;BME280;5572;49.540;11.932;2023-06-14T10:27:53;95758.03;;;21.84;100.00
11038;BME280;5572;49.540;11.932;2023-06-14T10:30:25;95645.41;;;23.00;100.00
11038;BME280;5572;49.540;11.932;2023-06-14T10:33:04;95611.63;;;23.35;100.00
11038;BME280;5572;49.540;11.932;2023-06-14T10:35:32;95459.00;;;23.79;100.00
11038;BME280;5572;49.540;11.932;2023-06-14T10:38:07;95614.69;;;22.98;100.00
11038;BME280;5572;49.540;11.932;2023-06-14T10:40:34;95624.00;;;22.56;100.00
11038;BME280;5572;49.540;11.932;2023-06-14T10:43:00;95664.41;;;23.26;100.00
11038;BME280;5572;49.540;11.932;2023-06-14T10:45:28;95670.88;;;22.02;100.00
11038;BME280;5572;49.540;11.932;2023-06-14T10:47:57;95641.41;;;22.80;100.00
11038;BME280;5572;49.540;11.932;2023-06-14T10:50:27;95629.31;;;23.13;100.00
11038;BME280;5572;49.540;11.932;2023-06-14T10:52:54;95264.38;;;24.96;100.00
11038;BME280;5572;49.540;11.932;2023-06-14T10:55:22;95476.41;;;23.55;100.00
11038;BME280;5572;49.540;11.932;2023-06-14T10:57:50;95584.75;;;25.04;100.00
11038;BME280;5572;49.540;11.932;2023-06-14T11:00:19;95308.16;;;26.53;100.00
11038;BME280;5572;49.540;11.932;2023-06-14T11:05:58;95697.50;;;23.19;100.00
11038;BME280;5572;49.540;11.932;2023-06-14T11:08:46;95669.66;;;22.60;100.00
11038;BME280;5572;49.540;11.932;2023-06-14T11:11:18;95843.28;;;22.63;100.00
11038;BME280;5572;49.540;11.932;2023-06-14T11:13:48;95728.59;;;23.13;100.00
11038;BME280;5572;49.540;11.932;2023-06-14T11:16:16;95859.81;;;22.20;100.00
11038;BME280;5572;49.540;11.932;2023-06-14T11:18:45;95817.72;;;22.66;100.00
11038;BME280;5572;49.540;11.932;2023-06-14T11:21:15;95680.66;;;22.50;100.00
11038;BME280;5572;49.540;11.932;2023-06-14T11:23:49;95683.75;;;22.45;100.00
11038;BME280;5572;49.540;11.932;2023-06-14T11:26:15;95735.28;;;21.90;100.00
11038;BME280;5572;49.540;11.932;2023-06-14T11:28:42;95798.78;;;22.15;100.00
11038;BME280;5572;49.540;11.932;2023-06-14T11:31:09;95785.16;;;22.29;100.00
11038;BME280;5572;49.540;11.932;2023-06-14T11:33:36;95684.72;;;22.83;100.00
11038;BME280;5572;49.540;11.932;2023-06-14T11:36:06;95539.47;;;23.22;100.00
11038;BME280;5572;49.540;11.932;2023-06-14T11:38:35;95616.25;;;22.99;100.00
11038;BME280;5572;49.540;11.932;2023-06-14T11:41:02;95517.78;;;23.66;100.00
11038;BME280;5572;49.540;11.932;2023-06-14T11:43:29;95787.28;;;22.02;100.00
11038;BME280;5572;49.540;11.932;2023-06-14T11:45:57;95695.63;;;22.56;100.00
11038;BME280;5572;49.540;11.932;2023-06-14T11:48:23;95831.78;;;21.68;100.00
11038;BME280;5572;49.540;11.932;2023-06-14T11:51:01;95738.44;;;22.43;100.00
11038;BME280;5572;49.540;11.932;2023-06-14T11:53:29;95814.97;;;22.20;100.00
11038;BME280;5572;49.540;11.932;2023-06-14T11:55:57;95701.78;;;23.10;100.00
11038;BME280;5572;49.540;11.932;2023-06-14T11:58:25;95764.94;;;22.61;100.00
11038;BME280;5572;49.540;11.932;2023-06-14T12:00:52;95621.03;;;23.09;100.00
11038;BME280;5572;49.540;11.932;2023-06-14T12:03:22;95670.44;;;22.57;100.00
11038;BME280;5572;49.540;11.932;2023-06-14T12:05:50;95653.19;;;22.74;100.00
11038;BME280;5572;49.540;11.932;2023-06-14T12:08:16;95523.28;;;23.76;100.00
11038;BME280;5572;49.540;11.932;2023-06-14T12:10:45;95713.75;;;22.60;100.00
11038;BME280;5572;49.540;11.932;2023-06-14T12:13:12;95733.66;;;23.04;100.00
11038;BME280;5572;49.540;11.932;2023-06-14T12:15:39;95873.41;;;23.64;100.00
11038;BME280;5572;49.540;11.932;2023-06-14T12:18:06;95527.47;;;24.26;100.00
11038;BME280;5572;49.540;11.932;2023-06-14T12:20:34;95152.22;;;26.49;100.00
11038;BME280;5572;49.540;11.932;2023-06-14T12:23:03;95288.50;;;25.32;100.00
11038;BME280;5572;49.540;11.932;2023-06-14T12:25:31;95667.22;;;24.13;100.00
11038;BME280;5572;49.540;11.932;2023-06-14T12:28:04;95891.97;;;22.99;100.00
11038;BME280;5572;49.540;11.932;2023-06-14T12:30:32;95692.03;;;23.54;100.00
11038;BME280;5572;49.540;11.932;2023-06-14T12:32:58;95662.13;;;23.77;100.00
11038;BME280;5572;49.540;11.932;2023-06-14T12:35:25;95726.72;;;23.51;100.00
11038;BME280;5572;49.540;11.932;2023-06-14T12:37:52;95638.69;;;23.01;100.00
11038;BME280;5572;49.540;11.932;2023-06-14T12:40:19;95748.09;;;22.80;100.00
11038;BME280;5572;49.540;11.932;2023-06-14T12:42:45;95685.72;;;23.71;100.00
11038;BME280;5572;49.540;11.932;2023-06-14T12:45:14;95698.34;;;23.54;100.00
11038;BME280;5572;49.540;11.932;2023-06-14T12:47:41;95363.19;;;24.44;100.00
11038;BME280;5572;49.540;11.932;2023-06-14T12:50:08;95510.72;;;23.54;100.00
11038;BME280;5572;49.540;11.932;2023-06-14T12:52:35;95583.88;;;24.35;100.00
11038;BME280;5572;49.540;11.932;2023-06-14T12:55:04;95649.88;;;23.99;100.00
11038;BME280;5572;49.540;11.932;2023-06-14T12:57:31;95759.84;;;23.62;100.00
11038;BME280;5572;49.540;11.932;2023-06-14T12:59:59;95792.19;;;23.68;100.00
11038;BME280;5572;49.540;11.932;2023-06-14T13:02:27;95753.59;;;24.41;100.00
11038;BME280;5572;49.540;11.932;2023-06-14T13:04:54;95682.63;;;25.27;100.00